sensor_id;sensor_type;location;lat;lon;timestamp;pressure;altitude;pressure_sealevel;temperature;humidity
85157;BME280;75524;50.698;7.196;2024-01-30T00:00:40;101870.50;;;2.93;100.00
85157;BME280;75524;50.698;7.196;2024-01-30T00:03:07;101874.06;;;2.93;100.00
85157;BME280;75524;50.698;7.196;2024-01-30T00:05:33;101873.19;;;2.93;100.00
85157;BME280;75524;50.698;7.196;2024-01-30T00:08:00;101876.22;;;3.00;100.00
85157;BME280;75524;50.698;7.196;2024-01-30T00:10:26;101878.28;;;2.96;100.00
85157;BME280;75524;50.698;7.196;2024-01-30T00:12:53;101873.41;;;3.01;100.00
85157;BME280;75524;50.698;7.196;2024-01-30T00:15:19;101871.25;;;2.95;100.00
85157;BME280;75524;50.698;7.196;2024-01-30T00:17:46;101875.16;;;2.91;100.00
85157;BME280;75524;50.698;7.196;2024-01-30T00:20:12;101871.16;;;2.85;100.00
85157;BME280;75524;50.698;7.196;2024-01-30T00:22:39;101876.78;;;2.82;100.00
85157;BME280;75524;50.698;7.196;2024-01-30T00:25:06;101876.19;;;2.78;100.00
85157;BME280;75524;50.698;7.196;2024-01-30T00:27:32;101871.09;;;2.75;100.00
85157;BME280;75524;50.698;7.196;2024-01-30T00:29:59;101868.56;;;2.74;100.00
85157;BME280;75524;50.698;7.196;2024-01-30T00:32:25;101863.63;;;2.69;100.00
85157;BME280;75524;50.698;7.196;2024-01-30T00:34:52;101867.38;;;2.67;100.00
85157;BME280;75524;50.698;7.196;2024-01-30T00:37:18;101869.22;;;2.66;100.00
85157;BME280;75524;50.698;7.196;2024-01-30T00:39:45;101864.72;;;2.67;100.00
85157;BME280;75524;50.698;7.196;2024-01-30T00:42:12;101867.66;;;2.63;100.00
85157;BME280;75524;50.698;7.196;2024-01-30T00:44:38;101858.09;;;2.61;100.00
85157;BME280;75524;50.698;7.196;2024-01-30T00:47:05;101865.34;;;2.59;100.00
85157;BME280;75524;50.698;7.196;2024-01-30T00:49:32;101863.94;;;2.55;100.00
85157;BME280;75524;50.698;7.196;2024-01-30T00:51:58;101866.72;;;2.53;100.00
85157;BME280;75524;50.698;7.196;2024-01-30T00:54:25;101871.06;;;2.54;100.00
85157;BME280;75524;50.698;7.196;2024-01-30T00:56:51;101855.47;;;2.50;100.00
85157;BME280;75524;50.698;7.196;2024-01-30T00:59:17;101852.94;;;2.48;100.00
85157;BME280;75524;50.698;7.196;2024-01-30T01:01:44;101849.66;;;2.44;100.00
85157;BME280;75524;50.698;7.196;2024-01-30T01:04:11;101852.31;;;2.44;100.00
85157;BME280;75524;50.698;7.196;2024-01-30T01:06:37;101847.69;;;2.46;100.00
85157;BME280;75524;50.698;7.196;2024-01-30T01:09:04;101855.59;;;2.48;100.00
85157;BME280;75524;50.698;7.196;2024-01-30T01:11:30;101847.59;;;2.48;100.00
85157;BME280;75524;50.698;7.196;2024-01-30T01:13:57;101853.44;;;2.42;100.00
85157;BME280;75524;50.698;7.196;2024-01-30T01:16:24;101846.75;;;2.36;100.00
85157;BME280;75524;50.698;7.196;2024-01-30T01:18:50;101846.75;;;2.36;100.00
85157;BME280;75524;50.698;7.196;2024-01-30T01:21:17;101848.47;;;2.37;100.00
85157;BME280;75524;50.698;7.196;2024-01-30T01:23:43;101851.00;;;2.39;100.00
85157;BME280;75524;50.698;7.196;2024-01-30T01:26:10;101846.06;;;2.34;100.00
85157;BME280;75524;50.698;7.196;2024-01-30T01:28:36;101856.59;;;2.36;100.00
85157;BME280;75524;50.698;7.196;2024-01-30T01:31:03;101856.47;;;2.37;100.00
85157;BME280;75524;50.698;7.196;2024-01-30T01:33:32;101854.53;;;2.39;100.00
85157;BME280;75524;50.698;7.196;2024-01-30T01:36:00;101855.03;;;2.33;100.00
85157;BME280;75524;50.698;7.196;2024-01-30T01:38:28;101848.47;;;2.37;100.00
85157;BME280;75524;50.698;7.196;2024-01-30T01:40:55;101852.34;;;2.33;100.00
85157;BME280;75524;50.698;7.196;2024-01-30T01:43:22;101857.56;;;2.35;100.00
85157;BME280;75524;50.698;7.196;2024-01-30T01:45:48;101853.31;;;2.32;100.00
85157;BME280;75524;50.698;7.196;2024-01-30T01:48:15;101852.63;;;2.30;100.00
85157;BME280;75524;50.698;7.196;2024-01-30T01:50:42;101856.38;;;2.27;100.00
85157;BME280;75524;50.698;7.196;2024-01-30T01:53:10;101862.44;;;2.29;100.00
85157;BME280;75524;50.698;7.196;2024-01-30T01:55:37;101859.53;;;2.33;100.00
85157;BME280;75524;50.698;7.196;2024-01-30T01:58:04;101856.13;;;2.30;100.00
85157;BME280;75524;50.698;7.196;2024-01-30T02:00:31;101861.31;;;2.32;100.00
85157;BME280;75524;50.698;7.196;2024-01-30T02:02:58;101863.16;;;2.32;100.00
85157;BME280;75524;50.698;7.196;2024-01-30T02:05:26;101850.66;;;2.32;100.00
85157;BME280;75524;50.698;7.196;2024-01-30T02:07:52;101856.00;;;2.32;100.00
85157;BME280;75524;50.698;7.196;2024-01-30T02:10:20;101847.03;;;2.33;100.00
85157;BME280;75524;50.698;7.196;2024-01-30T02:12:46;101848.72;;;2.34;100.00
85157;BME280;75524;50.698;7.196;2024-01-30T02:15:13;101849.31;;;2.38;100.00
85157;BME280;75524;50.698;7.196;2024-01-30T02:17:40;101839.50;;;2.38;100.00
85157;BME280;75524;50.698;7.196;2024-01-30T02:20:06;101838.53;;;2.39;100.00
85157;BME280;75524;50.698;7.196;2024-01-30T02:22:34;101840.91;;;2.42;100.00
85157;BME280;75524;50.698;7.196;2024-01-30T02:25:01;101838.72;;;2.47;100.00
85157;BME280;75524;50.698;7.196;2024-01-30T02:27:28;101838.47;;;2.51;100.00
85157;BME280;75524;50.698;7.196;2024-01-30T02:29:54;101839.31;;;2.51;100.00
85157;BME280;75524;50.698;7.196;2024-01-30T02:32:21;101835.81;;;2.51;100.00
85157;BME280;75524;50.698;7.196;2024-01-30T02:34:47;101834.94;;;2.50;100.00
85157;BME280;75524;50.698;7.196;2024-01-30T02:37:14;101828.78;;;2.50;100.00
85157;BME280;75524;50.698;7.196;2024-01-30T02:39:40;101826.94;;;2.50;100.00
85157;BME280;75524;50.698;7.196;2024-01-30T02:42:07;101823.31;;;2.51;100.00
85157;BME280;75524;50.698;7.196;2024-01-30T02:44:33;101833.00;;;2.52;100.00
85157;BME280;75524;50.698;7.196;2024-01-30T02:46:59;101821.38;;;2.53;100.00
85157;BME280;75524;50.698;7.196;2024-01-30T02:49:26;101834.72;;;2.53;100.00
85157;BME280;75524;50.698;7.196;2024-01-30T02:51:54;101826.44;;;2.56;100.00
85157;BME280;75524;50.698;7.196;2024-01-30T02:54:20;101823.78;;;2.56;100.00
85157;BME280;75524;50.698;7.196;2024-01-30T02:56:47;101820.38;;;2.54;100.00
85157;BME280;75524;50.698;7.196;2024-01-30T02:59:14;101816.88;;;2.54;100.00
85157;BME280;75524;50.698;7.196;2024-01-30T03:01:44;101821.25;;;2.55;100.00
85157;BME280;75524;50.698;7.196;2024-01-30T03:04:11;101820.81;;;2.59;100.00
85157;BME280;75524;50.698;7.196;2024-01-30T03:06:38;101813.69;;;2.60;100.00
85157;BME280;75524;50.698;7.196;2024-01-30T03:09:04;101812.00;;;2.59;100.00
85157;BME280;75524;50.698;7.196;2024-01-30T03:11:31;101819.22;;;2.47;100.00
85157;BME280;75524;50.698;7.196;2024-01-30T03:13:58;101815.31;;;2.51;100.00
85157;BME280;75524;50.698;7.196;2024-01-30T03:16:24;101813.22;;;2.55;100.00
85157;BME280;75524;50.698;7.196;2024-01-30T03:18:51;101813.47;;;2.52;100.00
85157;BME280;75524;50.698;7.196;2024-01-30T03:21:17;101815.16;;;2.53;100.00
85157;BME280;75524;50.698;7.196;2024-01-30T03:23:44;101817.84;;;2.53;100.00
85157;BME280;75524;50.698;7.196;2024-01-30T03:26:11;101813.59;;;2.50;100.00
85157;BME280;75524;50.698;7.196;2024-01-30T03:28:39;101810.09;;;2.50;100.00
85157;BME280;75524;50.698;7.196;2024-01-30T03:31:05;101809.13;;;2.51;100.00
85157;BME280;75524;50.698;7.196;2024-01-30T03:33:32;101808.53;;;2.47;100.00
85157;BME280;75524;50.698;7.196;2024-01-30T03:36:03;101822.97;;;2.44;100.00
85157;BME280;75524;50.698;7.196;2024-01-30T03:38:29;101814.25;;;2.42;100.00
85157;BME280;75524;50.698;7.196;2024-01-30T03:40:56;101820.69;;;2.40;100.00
85157;BME280;75524;50.698;7.196;2024-01-30T03:43:22;101817.88;;;2.41;100.00
85157;BME280;75524;50.698;7.196;2024-01-30T03:45:48;101818.41;;;2.35;100.00
85157;BME280;75524;50.698;7.196;2024-01-30T03:48:15;101816.31;;;2.39;100.00
85157;BME280;75524;50.698;7.196;2024-01-30T03:50:41;101825.19;;;2.39;100.00
85157;BME280;75524;50.698;7.196;2024-01-30T03:53:08;101826.16;;;2.38;100.00
85157;BME280;75524;50.698;7.196;2024-01-30T03:55:34;101819.38;;;2.34;100.00
85157;BME280;75524;50.698;7.196;2024-01-30T03:58:01;101822.56;;;2.28;100.00
85157;BME280;75524;50.698;7.196;2024-01-30T04:00:27;101826.47;;;2.24;100.00
85157;BME280;75524;50.698;7.196;2024-01-30T04:02:54;101823.66;;;2.25;100.00
85157;BME280;75524;50.698;7.196;2024-01-30T04:05:21;101822.22;;;2.21;100.00
85157;BME280;75524;50.698;7.196;2024-01-30T04:07:48;101820.38;;;2.22;100.00
85157;BME280;75524;50.698;7.196;2024-01-30T04:10:14;101827.06;;;2.27;100.00
85157;BME280;75524;50.698;7.196;2024-01-30T04:12:41;101817.09;;;2.29;100.00
85157;BME280;75524;50.698;7.196;2024-01-30T04:15:08;101823.16;;;2.32;100.00
85157;BME280;75524;50.698;7.196;2024-01-30T04:17:34;101813.25;;;2.22;100.00
85157;BME280;75524;50.698;7.196;2024-01-30T04:20:01;101820.25;;;2.23;100.00
85157;BME280;75524;50.698;7.196;2024-01-30T04:22:28;101815.47;;;2.17;100.00
85157;BME280;75524;50.698;7.196;2024-01-30T04:24:54;101807.56;;;2.16;100.00
85157;BME280;75524;50.698;7.196;2024-01-30T04:27:21;101811.47;;;2.11;100.00
85157;BME280;75524;50.698;7.196;2024-01-30T04:29:47;101812.19;;;2.13;100.00
85157;BME280;75524;50.698;7.196;2024-01-30T04:32:14;101800.09;;;2.09;100.00
85157;BME280;75524;50.698;7.196;2024-01-30T04:34:40;101808.44;;;2.16;100.00
85157;BME280;75524;50.698;7.196;2024-01-30T04:37:10;101798.22;;;2.21;100.00
85157;BME280;75524;50.698;7.196;2024-01-30T04:39:37;101795.22;;;2.14;100.00
85157;BME280;75524;50.698;7.196;2024-01-30T04:42:03;101795.09;;;2.16;100.00
85157;BME280;75524;50.698;7.196;2024-01-30T04:44:34;101787.09;;;2.16;100.00
85157;BME280;75524;50.698;7.196;2024-01-30T04:47:01;101785.84;;;2.20;100.00
85157;BME280;75524;50.698;7.196;2024-01-30T04:49:28;101794.69;;;2.21;100.00
85157;BME280;75524;50.698;7.196;2024-01-30T04:51:56;101785.03;;;2.20;100.00
85157;BME280;75524;50.698;7.196;2024-01-30T04:54:23;101789.34;;;2.21;100.00
85157;BME280;75524;50.698;7.196;2024-01-30T04:56:49;101791.53;;;2.27;100.00
85157;BME280;75524;50.698;7.196;2024-01-30T04:59:16;101788.16;;;2.25;100.00
85157;BME280;75524;50.698;7.196;2024-01-30T05:01:43;101788.16;;;2.25;100.00
85157;BME280;75524;50.698;7.196;2024-01-30T05:04:09;101796.38;;;2.22;100.00
85157;BME280;75524;50.698;7.196;2024-01-30T05:06:42;101797.75;;;2.16;100.00
85157;BME280;75524;50.698;7.196;2024-01-30T05:09:09;101791.22;;;2.09;100.00
85157;BME280;75524;50.698;7.196;2024-01-30T05:11:39;101794.38;;;2.03;100.00
85157;BME280;75524;50.698;7.196;2024-01-30T05:14:07;101797.59;;;1.96;100.00
85157;BME280;75524;50.698;7.196;2024-01-30T05:16:33;101797.94;;;1.92;100.00
85157;BME280;75524;50.698;7.196;2024-01-30T05:19:00;101802.44;;;1.91;100.00
85157;BME280;75524;50.698;7.196;2024-01-30T05:21:29;101808.97;;;1.87;100.00
85157;BME280;75524;50.698;7.196;2024-01-30T05:23:55;101814.44;;;1.86;100.00
85157;BME280;75524;50.698;7.196;2024-01-30T05:26:22;101811.53;;;1.89;100.00
85157;BME280;75524;50.698;7.196;2024-01-30T05:28:49;101814.91;;;1.91;100.00
85157;BME280;75524;50.698;7.196;2024-01-30T05:31:15;101818.31;;;1.93;100.00
85157;BME280;75524;50.698;7.196;2024-01-30T05:33:42;101809.38;;;1.83;100.00
85157;BME280;75524;50.698;7.196;2024-01-30T05:36:11;101805.25;;;1.78;100.00
85157;BME280;75524;50.698;7.196;2024-01-30T05:38:39;101795.94;;;1.73;100.00
85157;BME280;75524;50.698;7.196;2024-01-30T05:41:05;101808.41;;;1.72;100.00
85157;BME280;75524;50.698;7.196;2024-01-30T05:43:32;101806.84;;;1.70;100.00
85157;BME280;75524;50.698;7.196;2024-01-30T05:45:59;101814.84;;;1.70;100.00
85157;BME280;75524;50.698;7.196;2024-01-30T05:48:26;101811.44;;;1.68;100.00
85157;BME280;75524;50.698;7.196;2024-01-30T05:50:52;101807.81;;;1.69;100.00
85157;BME280;75524;50.698;7.196;2024-01-30T05:53:19;101800.69;;;1.69;100.00
85157;BME280;75524;50.698;7.196;2024-01-30T05:55:45;101804.31;;;1.68;100.00
85157;BME280;75524;50.698;7.196;2024-01-30T05:58:12;101804.31;;;1.68;100.00
85157;BME280;75524;50.698;7.196;2024-01-30T06:00:38;101799.94;;;1.67;100.00
85157;BME280;75524;50.698;7.196;2024-01-30T06:03:05;101798.25;;;1.66;100.00
85157;BME280;75524;50.698;7.196;2024-01-30T06:05:31;101794.88;;;1.64;100.00
85157;BME280;75524;50.698;7.196;2024-01-30T06:07:58;101780.56;;;1.65;100.00
85157;BME280;75524;50.698;7.196;2024-01-30T06:10:25;101790.25;;;1.66;100.00
85157;BME280;75524;50.698;7.196;2024-01-30T06:12:51;101788.19;;;1.70;100.00
85157;BME280;75524;50.698;7.196;2024-01-30T06:15:18;101784.31;;;1.74;100.00
85157;BME280;75524;50.698;7.196;2024-01-30T06:17:44;101786.72;;;1.77;100.00
85157;BME280;75524;50.698;7.196;2024-01-30T06:20:11;101785.03;;;1.76;100.00
85157;BME280;75524;50.698;7.196;2024-01-30T06:22:37;101784.56;;;1.71;100.00
85157;BME280;75524;50.698;7.196;2024-01-30T06:25:04;101788.66;;;1.75;100.00
85157;BME280;75524;50.698;7.196;2024-01-30T06:27:30;101789.28;;;1.78;100.00
85157;BME280;75524;50.698;7.196;2024-01-30T06:29:57;101785.88;;;1.76;100.00
85157;BME280;75524;50.698;7.196;2024-01-30T06:32:24;101789.00;;;1.81;100.00
85157;BME280;75524;50.698;7.196;2024-01-30T06:34:51;101791.94;;;1.78;100.00
85157;BME280;75524;50.698;7.196;2024-01-30T06:37:17;101792.63;;;1.80;100.00
85157;BME280;75524;50.698;7.196;2024-01-30T06:39:44;101792.28;;;1.85;100.00
85157;BME280;75524;50.698;7.196;2024-01-30T06:42:10;101796.38;;;1.89;100.00
85157;BME280;75524;50.698;7.196;2024-01-30T06:44:38;101795.16;;;1.93;100.00
85157;BME280;75524;50.698;7.196;2024-01-30T06:47:04;101798.41;;;1.97;100.00
85157;BME280;75524;50.698;7.196;2024-01-30T06:49:31;101797.31;;;2.00;100.00
85157;BME280;75524;50.698;7.196;2024-01-30T06:51:58;101799.34;;;2.07;100.00
85157;BME280;75524;50.698;7.196;2024-01-30T06:54:24;101805.28;;;2.11;100.00
85157;BME280;75524;50.698;7.196;2024-01-30T06:56:51;101808.44;;;2.16;100.00
85157;BME280;75524;50.698;7.196;2024-01-30T06:59:17;101809.84;;;2.20;100.00
85157;BME280;75524;50.698;7.196;2024-01-30T07:01:44;101801.03;;;2.20;100.00
85157;BME280;75524;50.698;7.196;2024-01-30T07:04:11;101800.16;;;2.19;100.00
85157;BME280;75524;50.698;7.196;2024-01-30T07:06:37;101794.69;;;2.21;100.00
85157;BME280;75524;50.698;7.196;2024-01-30T07:09:04;101786.81;;;2.19;100.00
85157;BME280;75524;50.698;7.196;2024-01-30T07:11:31;101793.84;;;2.20;100.00
85157;BME280;75524;50.698;7.196;2024-01-30T07:13:58;101797.97;;;2.24;100.00
85157;BME280;75524;50.698;7.196;2024-01-30T07:16:25;101789.31;;;2.32;100.00
85157;BME280;75524;50.698;7.196;2024-01-30T07:18:52;101783.59;;;2.37;100.00
85157;BME280;75524;50.698;7.196;2024-01-30T07:21:20;101787.97;;;2.38;100.00
85157;BME280;75524;50.698;7.196;2024-01-30T07:23:51;101783.34;;;2.40;100.00
85157;BME280;75524;50.698;7.196;2024-01-30T07:26:17;101780.06;;;2.36;100.00
85157;BME280;75524;50.698;7.196;2024-01-30T07:28:44;101774.63;;;2.38;100.00
85157;BME280;75524;50.698;7.196;2024-01-30T07:31:10;101773.06;;;2.35;100.00
85157;BME280;75524;50.698;7.196;2024-01-30T07:33:37;101769.53;;;2.35;100.00
85157;BME280;75524;50.698;7.196;2024-01-30T07:36:04;101778.88;;;2.40;100.00
85157;BME280;75524;50.698;7.196;2024-01-30T07:38:35;101786.47;;;2.45;100.00
85157;BME280;75524;50.698;7.196;2024-01-30T07:41:01;101784.84;;;2.54;100.00
85157;BME280;75524;50.698;7.196;2024-01-30T07:43:28;101785.75;;;2.64;100.00
85157;BME280;75524;50.698;7.196;2024-01-30T07:45:55;101783.28;;;2.72;100.00
85157;BME280;75524;50.698;7.196;2024-01-30T07:48:21;101787.91;;;2.70;100.00
85157;BME280;75524;50.698;7.196;2024-01-30T07:50:48;101787.97;;;2.80;100.00
85157;BME280;75524;50.698;7.196;2024-01-30T07:53:15;101793.44;;;2.78;100.00
85157;BME280;75524;50.698;7.196;2024-01-30T07:55:43;101789.72;;;2.91;100.00
85157;BME280;75524;50.698;7.196;2024-01-30T07:58:13;101795.25;;;2.99;100.00
85157;BME280;75524;50.698;7.196;2024-01-30T08:00:39;101799.88;;;2.97;100.00
85157;BME280;75524;50.698;7.196;2024-01-30T08:03:06;101802.94;;;2.92;100.00
85157;BME280;75524;50.698;7.196;2024-01-30T08:05:32;101806.34;;;2.94;100.00
85157;BME280;75524;50.698;7.196;2024-01-30T08:07:59;101803.84;;;3.03;100.00
85157;BME280;75524;50.698;7.196;2024-01-30T08:10:26;101809.69;;;3.18;100.00
85157;BME280;75524;50.698;7.196;2024-01-30T08:12:52;101810.59;;;3.38;100.00
85157;BME280;75524;50.698;7.196;2024-01-30T08:15:19;101821.34;;;3.57;100.00
85157;BME280;75524;50.698;7.196;2024-01-30T08:17:46;101829.72;;;3.74;100.00
85157;BME280;75524;50.698;7.196;2024-01-30T08:20:12;101827.50;;;3.89;100.00
85157;BME280;75524;50.698;7.196;2024-01-30T08:22:40;101828.63;;;3.96;100.00
85157;BME280;75524;50.698;7.196;2024-01-30T08:25:08;101826.97;;;4.05;100.00
85157;BME280;75524;50.698;7.196;2024-01-30T08:27:36;101828.38;;;4.09;100.00
85157;BME280;75524;50.698;7.196;2024-01-30T08:30:06;101825.88;;;4.17;100.00
85157;BME280;75524;50.698;7.196;2024-01-30T08:32:33;101817.84;;;4.17;100.00
85157;BME280;75524;50.698;7.196;2024-01-30T08:35:00;101813.59;;;4.24;100.00
85157;BME280;75524;50.698;7.196;2024-01-30T08:37:30;101810.22;;;4.32;100.00
85157;BME280;75524;50.698;7.196;2024-01-30T08:39:57;101815.75;;;4.40;100.00
85157;BME280;75524;50.698;7.196;2024-01-30T08:42:23;101808.25;;;4.54;100.00
85157;BME280;75524;50.698;7.196;2024-01-30T08:44:50;101799.81;;;4.58;100.00
85157;BME280;75524;50.698;7.196;2024-01-30T08:47:17;101795.72;;;4.64;100.00
85157;BME280;75524;50.698;7.196;2024-01-30T08:49:47;101802.72;;;4.75;100.00
85157;BME280;75524;50.698;7.196;2024-01-30T08:52:13;101798.50;;;4.82;100.00
85157;BME280;75524;50.698;7.196;2024-01-30T08:54:40;101796.06;;;4.89;100.00
85157;BME280;75524;50.698;7.196;2024-01-30T08:57:06;101802.56;;;4.96;100.00
85157;BME280;75524;50.698;7.196;2024-01-30T08:59:33;101809.47;;;4.99;100.00
85157;BME280;75524;50.698;7.196;2024-01-30T09:02:00;101810.00;;;5.02;100.00
85157;BME280;75524;50.698;7.196;2024-01-30T09:04:38;101814.50;;;5.11;100.00
85157;BME280;75524;50.698;7.196;2024-01-30T09:07:05;101825.63;;;5.17;100.00
85157;BME280;75524;50.698;7.196;2024-01-30T09:09:38;101833.34;;;5.20;100.00
85157;BME280;75524;50.698;7.196;2024-01-30T09:12:06;101829.94;;;5.27;100.00
85157;BME280;75524;50.698;7.196;2024-01-30T09:14:36;101844.16;;;5.38;100.00
85157;BME280;75524;50.698;7.196;2024-01-30T09:17:03;101844.25;;;5.46;100.00
85157;BME280;75524;50.698;7.196;2024-01-30T09:19:30;101841.69;;;5.54;100.00
85157;BME280;75524;50.698;7.196;2024-01-30T09:21:57;101843.16;;;5.67;100.00
85157;BME280;75524;50.698;7.196;2024-01-30T09:24:23;101851.19;;;5.76;100.00
85157;BME280;75524;50.698;7.196;2024-01-30T09:26:50;101865.28;;;5.79;100.00
85157;BME280;75524;50.698;7.196;2024-01-30T09:29:16;101857.34;;;5.87;100.00
85157;BME280;75524;50.698;7.196;2024-01-30T09:31:44;101851.53;;;5.91;100.00
85157;BME280;75524;50.698;7.196;2024-01-30T09:34:12;101854.88;;;6.03;100.00
85157;BME280;75524;50.698;7.196;2024-01-30T09:36:39;101862.94;;;6.21;100.00
85157;BME280;75524;50.698;7.196;2024-01-30T09:39:05;101854.91;;;6.39;100.00
85157;BME280;75524;50.698;7.196;2024-01-30T09:41:35;101851.25;;;6.40;100.00
85157;BME280;75524;50.698;7.196;2024-01-30T09:44:08;101840.34;;;6.42;100.00
85157;BME280;75524;50.698;7.196;2024-01-30T09:46:35;101858.03;;;6.53;100.00
85157;BME280;75524;50.698;7.196;2024-01-30T09:49:02;101857.66;;;6.66;100.00
85157;BME280;75524;50.698;7.196;2024-01-30T09:51:29;101852.63;;;6.89;100.00
85157;BME280;75524;50.698;7.196;2024-01-30T09:53:56;101853.50;;;7.16;100.00
85157;BME280;75524;50.698;7.196;2024-01-30T09:56:23;101858.47;;;7.37;100.00
85157;BME280;75524;50.698;7.196;2024-01-30T09:58:49;101862.63;;;7.57;100.00
85157;BME280;75524;50.698;7.196;2024-01-30T10:01:17;101879.91;;;7.81;100.00
85157;BME280;75524;50.698;7.196;2024-01-30T10:03:45;101866.16;;;8.01;100.00
85157;BME280;75524;50.698;7.196;2024-01-30T10:06:13;101862.84;;;8.15;100.00
85157;BME280;75524;50.698;7.196;2024-01-30T10:08:42;101871.13;;;8.30;100.00
85157;BME280;75524;50.698;7.196;2024-01-30T10:11:08;101866.75;;;8.37;100.00
85157;BME280;75524;50.698;7.196;2024-01-30T10:13:35;101870.16;;;8.48;100.00
85157;BME280;75524;50.698;7.196;2024-01-30T10:16:02;101863.44;;;8.60;100.00
85157;BME280;75524;50.698;7.196;2024-01-30T10:18:29;101863.13;;;8.71;100.00
85157;BME280;75524;50.698;7.196;2024-01-30T10:20:56;101861.25;;;8.80;100.00
85157;BME280;75524;50.698;7.196;2024-01-30T10:23:22;101864.13;;;8.95;100.00
85157;BME280;75524;50.698;7.196;2024-01-30T10:25:51;101870.16;;;9.05;100.00
85157;BME280;75524;50.698;7.196;2024-01-30T10:28:17;101877.56;;;9.20;100.00
85157;BME280;75524;50.698;7.196;2024-01-30T10:30:44;101876.19;;;9.32;100.00
85157;BME280;75524;50.698;7.196;2024-01-30T10:33:10;101875.34;;;9.40;100.00
85157;BME280;75524;50.698;7.196;2024-01-30T10:35:37;101881.38;;;9.42;99.83
85157;BME280;75524;50.698;7.196;2024-01-30T10:38:05;101869.91;;;9.48;100.00
85157;BME280;75524;50.698;7.196;2024-01-30T10:40:37;101881.19;;;9.44;100.00
85157;BME280;75524;50.698;7.196;2024-01-30T10:43:09;101884.25;;;9.41;99.48
85157;BME280;75524;50.698;7.196;2024-01-30T10:45:39;101877.69;;;9.43;100.00
85157;BME280;75524;50.698;7.196;2024-01-30T10:48:08;101892.16;;;9.42;99.20
85157;BME280;75524;50.698;7.196;2024-01-30T10:50:36;101885.59;;;9.45;98.45
85157;BME280;75524;50.698;7.196;2024-01-30T10:53:16;101879.84;;;9.56;99.14
85157;BME280;75524;50.698;7.196;2024-01-30T10:55:46;101875.75;;;9.60;98.88
85157;BME280;75524;50.698;7.196;2024-01-30T10:58:14;101872.75;;;9.63;97.56
85157;BME280;75524;50.698;7.196;2024-01-30T11:00:41;101875.06;;;9.66;96.44
85157;BME280;75524;50.698;7.196;2024-01-30T11:03:08;101876.06;;;9.74;95.99
85157;BME280;75524;50.698;7.196;2024-01-30T11:05:35;101869.81;;;9.81;96.89
85157;BME280;75524;50.698;7.196;2024-01-30T11:08:12;101875.16;;;9.89;96.56
85157;BME280;75524;50.698;7.196;2024-01-30T11:10:48;101864.47;;;9.96;96.14
85157;BME280;75524;50.698;7.196;2024-01-30T11:13:15;101856.38;;;9.96;95.68
85157;BME280;75524;50.698;7.196;2024-01-30T11:15:42;101859.78;;;9.90;94.23
85157;BME280;75524;50.698;7.196;2024-01-30T11:18:09;101855.88;;;9.93;94.48
85157;BME280;75524;50.698;7.196;2024-01-30T11:20:35;101850.50;;;9.93;93.27
85157;BME280;75524;50.698;7.196;2024-01-30T11:23:03;101846.97;;;9.92;94.44
85157;BME280;75524;50.698;7.196;2024-01-30T11:25:32;101849.84;;;9.91;94.03
85157;BME280;75524;50.698;7.196;2024-01-30T11:28:00;101854.22;;;9.92;93.21
85157;BME280;75524;50.698;7.196;2024-01-30T11:30:28;101852.53;;;9.91;93.76
85157;BME280;75524;50.698;7.196;2024-01-30T11:33:09;101850.34;;;9.94;93.04
85157;BME280;75524;50.698;7.196;2024-01-30T11:35:39;101854.00;;;10.01;92.34
85157;BME280;75524;50.698;7.196;2024-01-30T11:38:15;101853.66;;;10.04;92.73
85157;BME280;75524;50.698;7.196;2024-01-30T11:40:43;101850.59;;;10.08;93.18
85157;BME280;75524;50.698;7.196;2024-01-30T11:43:10;101849.59;;;10.00;91.84
85157;BME280;75524;50.698;7.196;2024-01-30T11:45:37;101847.88;;;10.08;92.43
85157;BME280;75524;50.698;7.196;2024-01-30T11:48:05;101849.91;;;10.05;91.11
85157;BME280;75524;50.698;7.196;2024-01-30T11:50:33;101838.97;;;10.07;90.98
85157;BME280;75524;50.698;7.196;2024-01-30T11:53:01;101841.41;;;10.17;91.13
85157;BME280;75524;50.698;7.196;2024-01-30T11:55:29;101830.28;;;10.20;91.10
85157;BME280;75524;50.698;7.196;2024-01-30T11:58:00;101828.72;;;10.26;91.02
85157;BME280;75524;50.698;7.196;2024-01-30T12:00:27;101836.09;;;10.32;91.16
85157;BME280;75524;50.698;7.196;2024-01-30T12:02:55;101831.03;;;10.37;89.30
85157;BME280;75524;50.698;7.196;2024-01-30T12:05:28;101832.81;;;10.45;88.91
85157;BME280;75524;50.698;7.196;2024-01-30T12:07:54;101841.88;;;10.52;88.87
85157;BME280;75524;50.698;7.196;2024-01-30T12:10:21;101837.91;;;10.63;89.37
85157;BME280;75524;50.698;7.196;2024-01-30T12:12:51;101832.63;;;10.69;89.21
85157;BME280;75524;50.698;7.196;2024-01-30T12:15:18;101830.25;;;10.66;87.48
85157;BME280;75524;50.698;7.196;2024-01-30T12:17:47;101838.03;;;10.69;86.96
85157;BME280;75524;50.698;7.196;2024-01-30T12:20:17;101836.94;;;10.79;87.32
85157;BME280;75524;50.698;7.196;2024-01-30T12:22:47;101835.25;;;10.78;85.75
85157;BME280;75524;50.698;7.196;2024-01-30T12:25:18;101830.59;;;10.86;86.44
85157;BME280;75524;50.698;7.196;2024-01-30T12:27:47;101828.19;;;10.92;85.70
85157;BME280;75524;50.698;7.196;2024-01-30T12:30:19;101821.88;;;10.99;85.18
85157;BME280;75524;50.698;7.196;2024-01-30T12:32:49;101834.00;;;11.03;85.21
85157;BME280;75524;50.698;7.196;2024-01-30T12:35:18;101821.63;;;11.09;85.15
85157;BME280;75524;50.698;7.196;2024-01-30T12:37:46;101815.63;;;11.14;85.01
85157;BME280;75524;50.698;7.196;2024-01-30T12:40:16;101834.84;;;11.04;83.04
85157;BME280;75524;50.698;7.196;2024-01-30T12:42:46;101829.69;;;10.94;83.93
85157;BME280;75524;50.698;7.196;2024-01-30T12:45:16;101837.31;;;10.91;84.06
85157;BME280;75524;50.698;7.196;2024-01-30T12:47:43;101837.50;;;10.89;84.00
85157;BME280;75524;50.698;7.196;2024-01-30T12:50:09;101848.31;;;10.89;84.53